Time;durP1;ratioP1;P1;durP2;ratioP2;P2;SDS_P1;SDS_P2;PMS_P1;PMS_P2;Temp;Humidity;BMP_temperature;BMP_pressure;BME280_temperature;BME280_humidity;BME280_pressure;Samples;Min_cycle;Max_cycle;Signal;HPM_P1;HPM_P2
2021/12/15 00:00:03;;;;;;;3.85;2.25;;;;;;;;;;5051072;28;20029;-36
2021/12/15 00:02:37;;;;;;;5.38;2.20;;;;;;;;;;5052076;28;20032;-36
2021/12/15 00:05:05;;;;;;;3.25;2.00;;;;;;;;;;5052366;28;20071;-35
2021/12/15 00:07:31;;;;;;;4.00;2.03;;;;;;;;;;5051952;28;20025;-35
2021/12/15 00:09:56;;;;;;;3.95;2.20;;;;;;;;;;5051759;28;20040;-36
2021/12/15 00:12:22;;;;;;;6.15;2.78;;;;;;;;;;5051885;28;20454;-36
2021/12/15 00:14:48;;;;;;;6.07;2.22;;;;;;;;;;5052086;28;20037;-36
2021/12/15 00:17:14;;;;;;;7.10;2.17;;;;;;;;;;5051844;28;20040;-36
2021/12/15 00:19:39;;;;;;;5.43;2.47;;;;;;;;;;5051697;28;20064;-36
2021/12/15 00:22:06;;;;;;;2.35;1.88;;;;;;;;;;5051963;28;20113;-36
2021/12/15 00:24:34;;;;;;;4.07;1.88;;;;;;;;;;5051920;28;20436;-36
2021/12/15 00:26:59;;;;;;;3.38;2.58;;;;;;;;;;5051632;28;20025;-36
2021/12/15 00:29:25;;;;;;;2.58;1.90;;;;;;;;;;5051528;28;20508;-36
2021/12/15 00:31:51;;;;;;;5.05;2.33;;;;;;;;;;5050525;28;20475;-36
2021/12/15 00:34:17;;;;;;;6.20;2.88;;;;;;;;;;5051548;28;20060;-36
2021/12/15 00:36:47;;;;;;;2.72;2.20;;;;;;;;;;5049855;28;20102;-35
2021/12/15 00:39:14;;;;;;;3.30;2.30;;;;;;;;;;5051583;28;20021;-36
2021/12/15 00:41:40;;;;;;;4.68;3.08;;;;;;;;;;5051585;28;20032;-36
2021/12/15 00:44:06;;;;;;;4.28;1.95;;;;;;;;;;5051354;28;20040;-36
2021/12/15 00:46:33;;;;;;;5.53;2.42;;;;;;;;;;5050167;28;20117;-36
2021/12/15 00:48:59;;;;;;;7.13;2.53;;;;;;;;;;5051269;28;20495;-36
2021/12/15 00:51:25;;;;;;;3.30;2.40;;;;;;;;;;5049900;28;20431;-36
2021/12/15 00:53:50;;;;;;;7.07;2.60;;;;;;;;;;5051212;28;20104;-37
2021/12/15 00:56:16;;;;;;;3.97;2.22;;;;;;;;;;5051318;28;20017;-36
2021/12/15 00:58:42;;;;;;;3.35;2.35;;;;;;;;;;5049855;28;20414;-36
2021/12/15 01:01:08;;;;;;;3.67;2.30;;;;;;;;;;5051234;28;20017;-36
2021/12/15 01:03:34;;;;;;;2.58;2.10;;;;;;;;;;5051211;28;20037;-36
2021/12/15 01:06:05;;;;;;;4.00;2.70;;;;;;;;;;5051028;28;20605;-36
2021/12/15 01:08:31;;;;;;;3.45;1.85;;;;;;;;;;5049956;28;20111;-36
2021/12/15 01:11:11;;;;;;;2.97;2.10;;;;;;;;;;5052087;28;20119;-36
2021/12/15 01:21:52;;;;;;;4.32;1.98;;;;;;;;;;5055083;28;20025;-36
2021/12/15 01:24:18;;;;;;;3.05;1.77;;;;;;;;;;5053894;28;20033;-36
2021/12/15 01:26:44;;;;;;;2.90;2.13;;;;;;;;;;5053649;28;20029;-38
2021/12/15 01:29:10;;;;;;;3.58;2.10;;;;;;;;;;5055005;28;20025;-36
2021/12/15 01:31:36;;;;;;;3.30;1.40;;;;;;;;;;5054847;28;20459;-36
2021/12/15 01:34:01;;;;;;;4.93;2.72;;;;;;;;;;5053478;28;20471;-36
2021/12/15 01:36:27;;;;;;;3.28;1.80;;;;;;;;;;5054631;28;20044;-36
2021/12/15 01:38:53;;;;;;;3.97;2.33;;;;;;;;;;5054808;28;20037;-36
2021/12/15 01:41:21;;;;;;;2.05;1.58;;;;;;;;;;5054742;28;20027;-36
2021/12/15 01:46:52;;;;;;;2.65;1.98;;;;;;;;;;5054648;28;20098;-36
2021/12/15 01:49:40;;;;;;;2.05;1.83;;;;;;;;;;5053315;28;20032;-36
2021/12/15 01:52:25;;;;;;;5.43;2.50;;;;;;;;;;5054253;28;20519;-36
2021/12/15 01:54:57;;;;;;;3.58;1.90;;;;;;;;;;5052681;28;20048;-36
2021/12/15 01:57:24;;;;;;;2.60;2.03;;;;;;;;;;5054565;28;20044;-36
2021/12/15 01:59:50;;;;;;;2.38;1.67;;;;;;;;;;5052974;28;20025;-36
2021/12/15 02:02:16;;;;;;;1.80;1.20;;;;;;;;;;5054273;28;20033;-36
2021/12/15 02:04:42;;;;;;;3.03;1.88;;;;;;;;;;5053075;28;20031;-36
2021/12/15 02:07:12;;;;;;;4.25;2.58;;;;;;;;;;5053019;28;20364;-36
2021/12/15 02:12:22;;;;;;;2.67;2.20;;;;;;;;;;5053046;28;20049;-36
2021/12/15 02:14:49;;;;;;;4.03;2.33;;;;;;;;;;5054051;28;20029;-36
2021/12/15 02:17:14;;;;;;;3.85;2.00;;;;;;;;;;5052797;28;20036;-36
2021/12/15 02:19:40;;;;;;;3.88;2.30;;;;;;;;;;5052628;28;20029;-36
2021/12/15 02:22:06;;;;;;;2.88;1.83;;;;;;;;;;5051541;28;20061;-36
2021/12/15 02:24:34;;;;;;;4.43;2.40;;;;;;;;;;5052694;28;20064;-36
2021/12/15 02:27:00;;;;;;;3.30;2.30;;;;;;;;;;5052582;28;20029;-36
2021/12/15 02:29:31;;;;;;;3.35;1.55;;;;;;;;;;5052411;28;20386;-36
2021/12/15 02:32:07;;;;;;;7.65;2.42;;;;;;;;;;5052481;28;20497;-36
2021/12/15 02:34:56;;;;;;;4.32;3.13;;;;;;;;;;5052506;28;20033;-36
2021/12/15 02:37:20;;;;;;;4.60;2.45;;;;;;;;;;5053450;28;20143;-36
2021/12/15 02:39:51;;;;;;;2.75;1.83;;;;;;;;;;5052274;28;20025;-36
2021/12/15 02:42:18;;;;;;;3.17;2.72;;;;;;;;;;5052370;28;20482;-36
2021/12/15 02:44:45;;;;;;;4.70;2.60;;;;;;;;;;5053454;28;20475;-36
2021/12/15 02:47:12;;;;;;;3.05;2.05;;;;;;;;;;5053886;28;20059;-36
2021/12/15 02:49:37;;;;;;;3.20;1.83;;;;;;;;;;5053344;28;20021;-36
2021/12/15 02:52:03;;;;;;;3.13;1.73;;;;;;;;;;5053272;28;20090;-36
2021/12/15 02:54:29;;;;;;;5.97;2.58;;;;;;;;;;5052220;28;20021;-36
2021/12/15 02:56:56;;;;;;;2.42;1.80;;;;;;;;;;5053320;28;20055;-36
2021/12/15 02:59:31;;;;;;;2.35;1.88;;;;;;;;;;5053210;28;20021;-36
2021/12/15 03:02:10;;;;;;;1.80;1.42;;;;;;;;;;5053180;28;20037;-36
2021/12/15 03:07:12;;;;;;;2.08;1.45;;;;;;;;;;5053184;28;20530;-36
2021/12/15 03:18:03;;;;;;;3.30;2.17;;;;;;;;;;5053247;28;20025;-36
2021/12/15 03:20:30;;;;;;;2.75;1.48;;;;;;;;;;5053061;28;20072;-36
2021/12/15 03:22:57;;;;;;;4.13;2.25;;;;;;;;;;5052782;28;20100;-36
2021/12/15 03:25:24;;;;;;;4.63;1.95;;;;;;;;;;5053108;28;20048;-35
2021/12/15 03:33:35;;;;;;;2.95;1.75;;;;;;;;;;5052443;28;20054;-36
2021/12/15 03:36:08;;;;;;;1.60;1.50;;;;;;;;;;5052654;28;20033;-36
2021/12/15 03:38:34;;;;;;;2.75;2.10;;;;;;;;;;5052890;28;20044;-36
2021/12/15 03:41:00;;;;;;;3.88;1.65;;;;;;;;;;5052380;28;20033;-36
2021/12/15 03:43:26;;;;;;;3.40;2.05;;;;;;;;;;5052414;28;20029;-37
2021/12/15 03:45:53;;;;;;;5.47;2.00;;;;;;;;;;5052360;28;20104;-36
2021/12/15 03:48:20;;;;;;;2.88;2.00;;;;;;;;;;5052625;28;20025;-36
2021/12/15 03:50:46;;;;;;;2.28;1.80;;;;;;;;;;5052145;28;20074;-36
2021/12/15 03:53:12;;;;;;;2.97;2.35;;;;;;;;;;5052327;28;20037;-36
2021/12/15 03:55:39;;;;;;;2.58;1.90;;;;;;;;;;5052170;28;20031;-37
2021/12/15 03:58:08;;;;;;;3.72;1.85;;;;;;;;;;5052099;28;20021;-36
2021/12/15 04:00:34;;;;;;;2.20;1.83;;;;;;;;;;5052194;28;20479;-36
2021/12/15 04:03:00;;;;;;;2.85;1.80;;;;;;;;;;5050659;28;20478;-36
2021/12/15 04:05:26;;;;;;;2.50;1.75;;;;;;;;;;5052116;28;20036;-36
2021/12/15 04:07:51;;;;;;;4.20;2.17;;;;;;;;;;5051957;28;20158;-36
2021/12/15 04:10:19;;;;;;;4.43;1.65;;;;;;;;;;5050869;28;20044;-36
2021/12/15 04:12:45;;;;;;;2.28;1.50;;;;;;;;;;5051774;28;20503;-36
2021/12/15 04:17:49;;;;;;;3.97;1.70;;;;;;;;;;5051721;28;20040;-36
2021/12/15 04:20:16;;;;;;;1.90;1.35;;;;;;;;;;5051718;28;20037;-36
2021/12/15 04:22:41;;;;;;;2.58;2.20;;;;;;;;;;5051983;28;20032;-38
2021/12/15 04:25:11;;;;;;;4.10;1.55;;;;;;;;;;5051714;28;20459;-36
2021/12/15 04:27:38;;;;;;;1.75;1.58;;;;;;;;;;5051997;28;20036;-36
2021/12/15 04:30:04;;;;;;;2.03;1.80;;;;;;;;;;5051455;28;20029;-36
2021/12/15 04:32:43;;;;;;;5.82;2.17;;;;;;;;;;5051797;28;20044;-36
2021/12/15 04:35:09;;;;;;;5.93;2.53;;;;;;;;;;5051612;28;20033;-36
2021/12/15 04:37:35;;;;;;;4.75;2.22;;;;;;;;;;5051178;28;20617;-36
2021/12/15 04:40:00;;;;;;;2.67;1.88;;;;;;;;;;5051366;28;20123;-36
2021/12/15 04:42:27;;;;;;;2.30;1.52;;;;;;;;;;5051520;28;20023;-36
2021/12/15 04:44:56;;;;;;;3.83;1.98;;;;;;;;;;5050715;28;20040;-36
2021/12/15 04:47:21;;;;;;;3.55;2.20;;;;;;;;;;5051438;28;20036;-36
2021/12/15 04:49:50;;;;;;;3.92;2.45;;;;;;;;;;5051173;28;20025;-36
2021/12/15 04:52:17;;;;;;;2.42;1.65;;;;;;;;;;5051640;28;20356;-36
2021/12/15 04:54:43;;;;;;;1.85;1.70;;;;;;;;;;5051185;28;20065;-36
2021/12/15 04:57:09;;;;;;;5.53;2.60;;;;;;;;;;5051367;28;20029;-36
2021/12/15 04:59:34;;;;;;;2.35;1.63;;;;;;;;;;5051535;28;20403;-36
2021/12/15 05:02:00;;;;;;;6.07;2.15;;;;;;;;;;5051208;28;20382;-36
2021/12/15 05:04:26;;;;;;;2.83;1.63;;;;;;;;;;5051553;28;20031;-36
2021/12/15 05:06:51;;;;;;;6.03;2.78;;;;;;;;;;5051070;28;20017;-35
2021/12/15 05:09:17;;;;;;;2.03;1.20;;;;;;;;;;5051459;28;20049;-36
2021/12/15 05:11:42;;;;;;;3.03;1.50;;;;;;;;;;5051050;28;20072;-36
2021/12/15 05:14:08;;;;;;;1.50;1.10;;;;;;;;;;5051355;28;20044;-36
2021/12/15 05:16:34;;;;;;;2.88;2.00;;;;;;;;;;5051138;28;20032;-36
2021/12/15 05:19:00;;;;;;;3.47;2.25;;;;;;;;;;5051014;28;20025;-36
2021/12/15 05:21:26;;;;;;;3.95;1.75;;;;;;;;;;5051001;28;20029;-36
2021/12/15 05:23:57;;;;;;;2.72;1.60;;;;;;;;;;5051320;28;20029;-36
2021/12/15 05:26:23;;;;;;;1.50;1.40;;;;;;;;;;5051063;28;20037;-36
2021/12/15 05:28:49;;;;;;;3.92;1.50;;;;;;;;;;5050870;28;20075;-36
2021/12/15 05:31:15;;;;;;;2.58;1.63;;;;;;;;;;5050903;28;20635;-36
2021/12/15 05:33:40;;;;;;;3.00;1.73;;;;;;;;;;5050983;28;20028;-37
2021/12/15 05:36:05;;;;;;;2.25;1.80;;;;;;;;;;5050842;28;20032;-36
2021/12/15 05:38:31;;;;;;;1.38;1.27;;;;;;;;;;5050769;28;20041;-36
2021/12/15 05:40:59;;;;;;;2.75;1.55;;;;;;;;;;5051044;28;20033;-37
2021/12/15 05:43:25;;;;;;;2.50;1.58;;;;;;;;;;5050888;28;20545;-36
2021/12/15 05:45:51;;;;;;;1.85;1.45;;;;;;;;;;5050781;28;20106;-37
2021/12/15 05:48:17;;;;;;;1.92;1.35;;;;;;;;;;5051129;28;20020;-36
2021/12/15 05:50:43;;;;;;;3.72;1.95;;;;;;;;;;5050639;28;20656;-36
2021/12/15 05:53:09;;;;;;;2.45;1.83;;;;;;;;;;5050831;28;20067;-36
2021/12/15 05:55:35;;;;;;;2.85;2.08;;;;;;;;;;5051093;28;20048;-36
2021/12/15 05:58:00;;;;;;;5.45;1.95;;;;;;;;;;5054692;28;20020;-36
2021/12/15 06:00:31;;;;;;;3.67;1.88;;;;;;;;;;5054400;28;20497;-36
2021/12/15 06:02:57;;;;;;;3.60;2.03;;;;;;;;;;5054522;28;20033;-36
2021/12/15 06:05:24;;;;;;;2.88;2.08;;;;;;;;;;5054643;28;20047;-36
2021/12/15 06:07:49;;;;;;;2.13;1.42;;;;;;;;;;5054253;28;20032;-36
2021/12/15 06:10:18;;;;;;;3.92;1.83;;;;;;;;;;5054069;28;20388;-36
2021/12/15 06:12:47;;;;;;;5.95;1.60;;;;;;;;;;5054352;28;20017;-36
2021/12/15 06:15:12;;;;;;;3.53;1.75;;;;;;;;;;5054149;28;20029;-36
2021/12/15 06:17:38;;;;;;;1.88;1.38;;;;;;;;;;5054054;28;20463;-36
2021/12/15 06:20:04;;;;;;;2.00;1.90;;;;;;;;;;5054236;28;20076;-36
2021/12/15 06:22:32;;;;;;;2.22;1.80;;;;;;;;;;5054029;28;20422;-36
2021/12/15 06:24:57;;;;;;;2.15;1.55;;;;;;;;;;5053833;28;20036;-36
2021/12/15 06:27:24;;;;;;;1.95;1.35;;;;;;;;;;5054045;28;20025;-36
2021/12/15 06:29:51;;;;;;;2.50;1.98;;;;;;;;;;5053995;28;20044;-36
2021/12/15 06:32:17;;;;;;;3.95;2.05;;;;;;;;;;5053801;28;20459;-36
2021/12/15 06:34:43;;;;;;;3.33;1.88;;;;;;;;;;5053848;28;20492;-36
2021/12/15 06:37:08;;;;;;;2.17;1.75;;;;;;;;;;5053823;28;20048;-36
2021/12/15 06:39:34;;;;;;;1.88;1.67;;;;;;;;;;5052336;28;20083;-36
2021/12/15 06:42:00;;;;;;;2.80;2.00;;;;;;;;;;5053655;28;20031;-36
2021/12/15 06:44:26;;;;;;;4.20;2.45;;;;;;;;;;5053934;28;20091;-35
2021/12/15 07:00:27;;;;;;;3.05;2.20;;;;;;;;;;5053276;28;20021;-35
2021/12/15 07:02:53;;;;;;;2.60;1.83;;;;;;;;;;5053225;28;20083;-41
2021/12/15 07:05:18;;;;;;;2.17;1.52;;;;;;;;;;5053575;28;20025;-35
2021/12/15 07:07:45;;;;;;;4.70;2.33;;;;;;;;;;5052506;28;20379;-36
2021/12/15 07:10:13;;;;;;;2.28;1.77;;;;;;;;;;5053026;28;20045;-35
2021/12/15 07:12:38;;;;;;;2.67;1.42;;;;;;;;;;5053211;28;20032;-39
2021/12/15 07:15:05;;;;;;;2.00;1.35;;;;;;;;;;5053019;28;20483;-36
2021/12/15 07:17:30;;;;;;;2.60;1.40;;;;;;;;;;5052943;28;20087;-36
2021/12/15 07:22:34;;;;;;;2.65;1.50;;;;;;;;;;5052577;28;20041;-36
2021/12/15 07:25:01;;;;;;;2.10;1.63;;;;;;;;;;5053142;28;20413;-35
2021/12/15 07:27:27;;;;;;;1.88;1.10;;;;;;;;;;5052853;28;20028;-36
2021/12/15 07:29:52;;;;;;;5.30;1.85;;;;;;;;;;5051241;28;20051;-35
2021/12/15 07:32:18;;;;;;;1.48;1.20;;;;;;;;;;5053024;28;20060;-35
2021/12/15 07:34:44;;;;;;;1.35;1.20;;;;;;;;;;5052751;28;20483;-36
2021/12/15 07:37:10;;;;;;;2.55;1.30;;;;;;;;;;5052354;28;20076;-36
2021/12/15 07:39:37;;;;;;;3.70;1.30;;;;;;;;;;5052586;28;20036;-35
2021/12/15 07:42:09;;;;;;;1.58;1.38;;;;;;;;;;5052478;28;20033;-35
2021/12/15 07:44:35;;;;;;;1.75;1.33;;;;;;;;;;5052511;28;20072;-36
2021/12/15 07:47:02;;;;;;;1.67;1.40;;;;;;;;;;5051103;28;20537;-36
2021/12/15 07:49:28;;;;;;;1.77;1.40;;;;;;;;;;5052305;28;20115;-35
2021/12/15 07:52:00;;;;;;;2.90;1.58;;;;;;;;;;5052164;28;20116;-35
2021/12/15 07:54:30;;;;;;;1.33;1.05;;;;;;;;;;5052623;28;20037;-36
2021/12/15 07:56:55;;;;;;;5.25;1.13;;;;;;;;;;5052242;28;20116;-36
2021/12/15 07:59:21;;;;;;;2.50;1.20;;;;;;;;;;5052216;28;20109;-36
2021/12/15 08:01:47;;;;;;;1.45;1.35;;;;;;;;;;5052118;28;20040;-36
2021/12/15 08:04:12;;;;;;;1.30;1.00;;;;;;;;;;5052106;28;20032;-36
2021/12/15 08:06:38;;;;;;;5.00;1.75;;;;;;;;;;5052057;28;20107;-35
2021/12/15 08:09:05;;;;;;;1.52;1.13;;;;;;;;;;5051912;28;20035;-36
2021/12/15 08:11:31;;;;;;;1.70;1.08;;;;;;;;;;5051891;28;20037;-37
2021/12/15 08:13:57;;;;;;;1.95;1.60;;;;;;;;;;5052121;28;20020;-35
2021/12/15 08:16:23;;;;;;;7.28;1.42;;;;;;;;;;5052115;28;20031;-36
2021/12/15 08:18:49;;;;;;;2.95;1.70;;;;;;;;;;5051822;28;20379;-36
2021/12/15 08:21:14;;;;;;;2.55;1.20;;;;;;;;;;5051183;28;20028;-36
2021/12/15 08:23:40;;;;;;;3.47;1.80;;;;;;;;;;5051810;28;20528;-36
2021/12/15 08:26:05;;;;;;;1.98;1.48;;;;;;;;;;5051576;28;20025;-36
2021/12/15 08:28:32;;;;;;;2.92;1.52;;;;;;;;;;5051736;28;20025;-40
2021/12/15 08:30:59;;;;;;;2.47;1.33;;;;;;;;;;5051519;28;20043;-36
2021/12/15 08:33:25;;;;;;;3.63;2.10;;;;;;;;;;5051828;28;20037;-36
2021/12/15 08:35:57;;;;;;;1.77;1.10;;;;;;;;;;5051535;28;20078;-35
2021/12/15 08:38:24;;;;;;;3.67;1.90;;;;;;;;;;5051529;28;20037;-37
2021/12/15 08:40:51;;;;;;;3.55;1.50;;;;;;;;;;5051596;28;20036;-35
2021/12/15 08:43:17;;;;;;;2.65;1.40;;;;;;;;;;5051815;28;20028;-36
2021/12/15 08:45:46;;;;;;;2.95;1.75;;;;;;;;;;5051495;28;20396;-36
2021/12/15 08:48:11;;;;;;;3.95;2.20;;;;;;;;;;5051630;28;20029;-36
2021/12/15 08:50:39;;;;;;;6.47;2.05;;;;;;;;;;5051339;28;20375;-36
2021/12/15 08:53:09;;;;;;;3.38;1.77;;;;;;;;;;5051579;28;20049;-36
2021/12/15 08:55:35;;;;;;;2.60;1.98;;;;;;;;;;5051548;28;20288;-35
2021/12/15 08:58:04;;;;;;;2.55;1.83;;;;;;;;;;5051295;28;20115;-35
2021/12/15 09:00:30;;;;;;;1.77;1.50;;;;;;;;;;5051197;28;20029;-36
2021/12/15 09:02:56;;;;;;;2.70;1.15;;;;;;;;;;5051461;28;20536;-36
2021/12/15 09:05:22;;;;;;;2.20;1.60;;;;;;;;;;5051278;28;20068;-36
2021/12/15 09:07:49;;;;;;;1.88;1.13;;;;;;;;;;5051345;28;20044;-35
2021/12/15 09:10:15;;;;;;;2.45;1.52;;;;;;;;;;5049885;28;20032;-35
2021/12/15 09:12:41;;;;;;;4.10;2.15;;;;;;;;;;5051537;28;20422;-35
2021/12/15 09:15:07;;;;;;;3.72;1.92;;;;;;;;;;5050990;28;20083;-35
2021/12/15 09:17:33;;;;;;;1.25;1.08;;;;;;;;;;5051175;28;20056;-35
2021/12/15 09:19:59;;;;;;;2.63;2.00;;;;;;;;;;5051045;28;20647;-35
2021/12/15 09:22:25;;;;;;;2.97;2.60;;;;;;;;;;5051075;28;20034;-36
2021/12/15 09:24:50;;;;;;;2.97;1.73;;;;;;;;;;5051042;28;20112;-36
2021/12/15 09:27:16;;;;;;;3.70;1.55;;;;;;;;;;5051321;28;20080;-37
2021/12/15 09:29:42;;;;;;;2.22;1.70;;;;;;;;;;5050853;28;20049;-36
2021/12/15 09:32:08;;;;;;;2.95;1.45;;;;;;;;;;5053586;28;20444;-36
2021/12/15 09:34:35;;;;;;;2.72;1.65;;;;;;;;;;5054987;28;20052;-36
2021/12/15 09:37:04;;;;;;;3.15;1.58;;;;;;;;;;5054589;28;20053;-36
2021/12/15 09:39:30;;;;;;;2.20;1.40;;;;;;;;;;5055142;28;20643;-36
2021/12/15 09:42:00;;;;;;;2.33;1.58;;;;;;;;;;5054980;28;20041;-36
2021/12/15 09:44:27;;;;;;;2.67;1.65;;;;;;;;;;5054804;28;20075;-36
2021/12/15 09:47:22;;;;;;;1.15;0.93;;;;;;;;;;5054936;28;20669;-36
2021/12/15 10:19:19;;;;;;;1.42;1.20;;;;;;;;;;5054039;28;20083;-35
2021/12/15 10:22:06;;;;;;;3.10;2.10;;;;;;;;;;5054131;28;20581;-36
2021/12/15 10:24:45;;;;;;;2.58;1.73;;;;;;;;;;5054024;28;20036;-35
2021/12/15 10:27:11;;;;;;;5.68;1.58;;;;;;;;;;5054178;28;20383;-36
2021/12/15 10:29:55;;;;;;;2.35;1.42;;;;;;;;;;5053839;28;20025;-35
2021/12/15 10:32:26;;;;;;;6.57;2.03;;;;;;;;;;5054253;28;20021;-36
2021/12/15 10:35:04;;;;;;;1.75;1.00;;;;;;;;;;5053725;28;20037;-35
2021/12/15 10:37:30;;;;;;;2.20;1.30;;;;;;;;;;5053568;28;20045;-35
2021/12/15 10:40:14;;;;;;;2.58;1.42;;;;;;;;;;5052453;28;20033;-36
2021/12/15 10:42:39;;;;;;;2.28;1.27;;;;;;;;;;5052765;28;20025;-36
2021/12/15 10:45:06;;;;;;;1.80;1.35;;;;;;;;;;5053639;28;20087;-36
2021/12/15 10:47:38;;;;;;;2.22;1.45;;;;;;;;;;5053783;28;20056;-38
2021/12/15 10:50:04;;;;;;;1.23;0.85;;;;;;;;;;5053658;28;20029;-36
2021/12/15 10:52:32;;;;;;;1.38;0.98;;;;;;;;;;5053846;28;20491;-36
2021/12/15 10:55:03;;;;;;;1.65;1.20;;;;;;;;;;5053354;28;20086;-36
2021/12/15 10:57:30;;;;;;;1.90;1.35;;;;;;;;;;5053422;28;20037;-36
2021/12/15 10:59:56;;;;;;;3.22;1.77;;;;;;;;;;5053309;28;20523;-36
2021/12/15 11:02:24;;;;;;;1.20;1.10;;;;;;;;;;5053547;28;20053;-36
2021/12/15 11:04:51;;;;;;;0.90;0.77;;;;;;;;;;5053277;28;20070;-36
2021/12/15 11:07:34;;;;;;;1.05;0.95;;;;;;;;;;5051972;28;20033;-36
2021/12/15 11:10:04;;;;;;;2.35;0.90;;;;;;;;;;5053014;28;20128;-36
2021/12/15 11:12:35;;;;;;;1.88;0.90;;;;;;;;;;5053129;28;20033;-36
2021/12/15 11:15:07;;;;;;;1.10;0.80;;;;;;;;;;5053044;28;20039;-36
2021/12/15 11:17:34;;;;;;;1.90;1.70;;;;;;;;;;5052966;28;20056;-36
2021/12/15 11:20:06;;;;;;;1.65;0.85;;;;;;;;;;5052899;28;20074;-35
2021/12/15 11:22:38;;;;;;;0.52;0.50;;;;;;;;;;5053012;28;20032;-36
2021/12/15 11:25:08;;;;;;;1.27;0.82;;;;;;;;;;5052741;28;20047;-35
2021/12/15 11:27:35;;;;;;;1.63;1.13;;;;;;;;;;5053068;28;20090;-36
2021/12/15 11:30:00;;;;;;;1.15;1.00;;;;;;;;;;5052920;28;20059;-35
2021/12/15 11:32:37;;;;;;;0.63;0.60;;;;;;;;;;5052748;28;20029;-36
2021/12/15 11:35:05;;;;;;;1.40;0.70;;;;;;;;;;5052723;28;20025;-36
2021/12/15 11:37:44;;;;;;;1.05;0.95;;;;;;;;;;5052521;28;20163;-36
2021/12/15 11:40:11;;;;;;;4.15;0.90;;;;;;;;;;5052541;28;20053;-35
2021/12/15 11:42:40;;;;;;;1.98;1.00;;;;;;;;;;5052524;28;20040;-35
2021/12/15 11:45:08;;;;;;;2.03;1.05;;;;;;;;;;5052371;28;20029;-36
2021/12/15 11:47:37;;;;;;;2.05;0.88;;;;;;;;;;5052501;28;20051;-36
2021/12/15 11:50:08;;;;;;;0.85;0.80;;;;;;;;;;5052296;28;20364;-35
2021/12/15 11:52:39;;;;;;;2.15;1.27;;;;;;;;;;5052590;28;20101;-36
2021/12/15 11:55:07;;;;;;;1.77;1.20;;;;;;;;;;5052047;28;20064;-35
2021/12/15 11:57:33;;;;;;;1.38;1.27;;;;;;;;;;5052294;28;20021;-35
2021/12/15 12:00:06;;;;;;;1.35;0.98;;;;;;;;;;5052003;28;20025;-36
2021/12/15 12:02:39;;;;;;;1.38;1.05;;;;;;;;;;5051100;28;20550;-35
2021/12/15 12:05:08;;;;;;;1.27;0.73;;;;;;;;;;5050887;28;20471;-36
2021/12/15 12:07:36;;;;;;;2.20;1.08;;;;;;;;;;5052243;28;20024;-35
2021/12/15 12:10:10;;;;;;;1.08;0.75;;;;;;;;;;5052136;28;20380;-36
2021/12/15 12:12:41;;;;;;;1.15;0.90;;;;;;;;;;5052236;28;20088;-36
2021/12/15 12:15:12;;;;;;;2.33;1.38;;;;;;;;;;5051934;28;20162;-35
2021/12/15 12:17:38;;;;;;;0.80;0.68;;;;;;;;;;5052204;28;20048;-36
2021/12/15 12:20:04;;;;;;;1.63;1.20;;;;;;;;;;5051760;28;20213;-35
2021/12/15 12:22:32;;;;;;;1.42;1.23;;;;;;;;;;5051785;28;20044;-35
2021/12/15 12:25:00;;;;;;;1.77;0.90;;;;;;;;;;5051764;28;20025;-36
2021/12/15 12:27:28;;;;;;;1.13;1.00;;;;;;;;;;5051738;28;20116;-36
2021/12/15 12:29:55;;;;;;;1.77;0.93;;;;;;;;;;5051841;28;20064;-35
2021/12/15 12:32:22;;;;;;;1.77;1.25;;;;;;;;;;5051694;28;20037;-36
2021/12/15 12:34:50;;;;;;;6.00;1.30;;;;;;;;;;5050259;28;20017;-35
2021/12/15 12:37:17;;;;;;;1.50;1.10;;;;;;;;;;5051386;28;20053;-37
2021/12/15 12:39:44;;;;;;;1.40;1.02;;;;;;;;;;5051546;28;20682;-36
2021/12/15 12:42:27;;;;;;;2.00;1.40;;;;;;;;;;5051737;28;20029;-35
2021/12/15 12:45:07;;;;;;;1.48;1.25;;;;;;;;;;5051463;28;20409;-35
2021/12/15 12:47:42;;;;;;;1.52;1.15;;;;;;;;;;5051549;28;20044;-36
2021/12/15 12:50:37;;;;;;;1.67;1.08;;;;;;;;;;5051128;28;20037;-36
2021/12/15 13:01:14;;;;;;;1.40;0.98;;;;;;;;;;5051289;28;20036;-36
2021/12/15 13:03:44;;;;;;;0.70;0.70;;;;;;;;;;5051234;28;20043;-36
2021/12/15 13:06:25;;;;;;;1.10;1.00;;;;;;;;;;5049258;28;20387;-36
2021/12/15 13:09:01;;;;;;;2.42;1.25;;;;;;;;;;5050933;28;20041;-35
2021/12/15 13:11:38;;;;;;;1.75;1.45;;;;;;;;;;5050061;28;20060;-36
2021/12/15 13:14:17;;;;;;;2.83;1.70;;;;;;;;;;5051239;28;20032;-35
2021/12/15 13:16:49;;;;;;;2.20;1.75;;;;;;;;;;5051166;28;20088;-35
2021/12/15 13:19:15;;;;;;;2.17;0.93;;;;;;;;;;5051066;28;20538;-36
2021/12/15 13:21:41;;;;;;;1.65;1.55;;;;;;;;;;5051160;28;20399;-35
2021/12/15 13:28:39;;;;;;;1.92;1.42;;;;;;;;;;5050977;28;20033;-36
2021/12/15 13:30:02;;;;;;;2.13;1.33;;;;;;;;;;5050787;28;20041;-35
2021/12/15 13:32:33;;;;;;;2.42;1.60;;;;;;;;;;5049747;28;20021;-36
2021/12/15 13:34:59;;;;;;;1.63;0.90;;;;;;;;;;5051270;28;20387;-36
2021/12/15 13:37:44;;;;;;;0.20;0.20;;;;;;;;;;5050755;28;20060;-36
2021/12/15 13:40:19;;;;;;;2.33;1.58;;;;;;;;;;5050780;28;20460;-36
2021/12/15 13:43:01;;;;;;;2.05;1.40;;;;;;;;;;5050907;28;20041;-35
2021/12/15 13:45:29;;;;;;;2.17;1.27;;;;;;;;;;5051190;28;20027;-35
2021/12/15 13:47:54;;;;;;;1.58;1.48;;;;;;;;;;5050716;28;20086;-35
2021/12/15 13:50:21;;;;;;;1.77;1.40;;;;;;;;;;5051137;28;20041;-35
2021/12/15 13:52:53;;;;;;;1.73;1.13;;;;;;;;;;5050806;28;20028;-36
2021/12/15 13:55:26;;;;;;;1.88;1.27;;;;;;;;;;5051070;28;20033;-36
2021/12/15 13:57:56;;;;;;;1.00;0.95;;;;;;;;;;5050678;28;20033;-35
2021/12/15 14:00:32;;;;;;;1.45;1.02;;;;;;;;;;5050664;28;20021;-36
2021/12/15 14:02:58;;;;;;;1.85;1.40;;;;;;;;;;5050888;28;20029;-37
2021/12/15 14:05:23;;;;;;;1.15;0.80;;;;;;;;;;5050745;28;20033;-36
2021/12/15 14:08:04;;;;;;;3.53;1.92;;;;;;;;;;5050600;28;20046;-36
2021/12/15 14:10:33;;;;;;;1.55;1.40;;;;;;;;;;5050552;28;20033;-37
2021/12/15 14:13:02;;;;;;;0.90;0.63;;;;;;;;;;5050587;28;20079;-36
2021/12/15 14:15:28;;;;;;;1.38;1.05;;;;;;;;;;5050521;28;20032;-36
2021/12/15 14:17:56;;;;;;;0.68;0.68;;;;;;;;;;5051402;28;20025;-36
2021/12/15 14:20:22;;;;;;;1.35;0.95;;;;;;;;;;5054180;28;20021;-36
2021/12/15 14:22:54;;;;;;;1.60;1.25;;;;;;;;;;5054360;28;20025;-36
2021/12/15 14:25:20;;;;;;;6.78;3.35;;;;;;;;;;5054140;28;20025;-36
2021/12/15 14:27:45;;;;;;;1.88;1.38;;;;;;;;;;5054284;28;20033;-36
2021/12/15 14:30:12;;;;;;;1.67;1.00;;;;;;;;;;5053768;28;20507;-36
2021/12/15 14:32:37;;;;;;;5.93;2.47;;;;;;;;;;5053939;28;20076;-36
2021/12/15 14:35:03;;;;;;;2.17;1.33;;;;;;;;;;5053798;28;20028;-36
2021/12/15 14:37:29;;;;;;;3.08;1.30;;;;;;;;;;5053643;28;20053;-36
2021/12/15 14:39:55;;;;;;;2.35;1.60;;;;;;;;;;5053722;28;20035;-36
2021/12/15 14:42:26;;;;;;;0.88;0.73;;;;;;;;;;5053754;28;20660;-36
2021/12/15 14:44:53;;;;;;;1.55;1.25;;;;;;;;;;5053556;28;20051;-36
2021/12/15 14:47:21;;;;;;;2.90;1.20;;;;;;;;;;5053688;28;20079;-36
2021/12/15 14:49:48;;;;;;;1.77;1.20;;;;;;;;;;5053484;28;20029;-36
2021/12/15 14:52:16;;;;;;;3.15;1.77;;;;;;;;;;5053512;28;20044;-36
2021/12/15 14:54:43;;;;;;;1.77;1.02;;;;;;;;;;5053464;28;20419;-36
2021/12/15 14:57:11;;;;;;;1.33;1.13;;;;;;;;;;5053331;28;20469;-36
2021/12/15 14:59:47;;;;;;;2.75;1.15;;;;;;;;;;5053385;28;20041;-36
2021/12/15 15:02:34;;;;;;;1.42;0.85;;;;;;;;;;5053349;28;20513;-36
2021/12/15 15:05:09;;;;;;;1.48;1.02;;;;;;;;;;5053472;28;20037;-35
2021/12/15 15:07:48;;;;;;;1.95;1.38;;;;;;;;;;5053243;28;20068;-36
2021/12/15 15:10:16;;;;;;;1.83;1.08;;;;;;;;;;5052947;28;20048;-36
2021/12/15 15:12:44;;;;;;;2.45;1.63;;;;;;;;;;5053094;28;20116;-36
2021/12/15 15:15:24;;;;;;;2.03;1.75;;;;;;;;;;5053351;28;20032;-36
2021/12/15 15:18:02;;;;;;;2.53;2.15;;;;;;;;;;5053048;28;20041;-36
2021/12/15 15:20:30;;;;;;;3.15;1.75;;;;;;;;;;5053263;28;20112;-36
2021/12/15 15:23:01;;;;;;;3.70;1.90;;;;;;;;;;5052906;28;20064;-36
2021/12/15 15:25:28;;;;;;;3.00;1.60;;;;;;;;;;5052887;28;20031;-37
2021/12/15 15:27:56;;;;;;;2.33;1.73;;;;;;;;;;5052827;28;20017;-35
2021/12/15 15:30:23;;;;;;;2.05;1.27;;;;;;;;;;5052292;28;20170;-36
2021/12/15 15:32:51;;;;;;;5.60;2.30;;;;;;;;;;5052753;28;20063;-36
2021/12/15 15:35:21;;;;;;;1.88;1.23;;;;;;;;;;5052695;28;20094;-36
2021/12/15 15:37:49;;;;;;;1.63;1.52;;;;;;;;;;5052496;28;20534;-36
2021/12/15 15:40:36;;;;;;;2.95;1.50;;;;;;;;;;5052466;28;20029;-35
2021/12/15 15:43:02;;;;;;;1.08;1.00;;;;;;;;;;5052508;28;20037;-36
2021/12/15 15:45:36;;;;;;;2.83;1.85;;;;;;;;;;5052886;28;20047;-36
2021/12/15 15:48:04;;;;;;;2.10;1.02;;;;;;;;;;5052428;28;20029;-36
2021/12/15 15:50:30;;;;;;;1.55;1.45;;;;;;;;;;5052346;28;20123;-36
2021/12/15 15:52:57;;;;;;;2.60;1.33;;;;;;;;;;5052392;28;20048;-36
2021/12/15 15:55:23;;;;;;;2.28;1.58;;;;;;;;;;5052612;28;20048;-36
2021/12/15 15:57:57;;;;;;;1.55;1.45;;;;;;;;;;5052289;28;20128;-36
2021/12/15 16:00:26;;;;;;;3.90;2.25;;;;;;;;;;5052257;28;20043;-36
2021/12/15 16:02:53;;;;;;;8.02;3.45;;;;;;;;;;5052453;28;20410;-36
2021/12/15 16:05:19;;;;;;;1.73;1.38;;;;;;;;;;5052152;28;20086;-36
2021/12/15 16:07:49;;;;;;;3.33;1.58;;;;;;;;;;5052114;28;20471;-36
2021/12/15 16:10:16;;;;;;;4.30;1.98;;;;;;;;;;5052061;28;20039;-36
2021/12/15 16:12:42;;;;;;;2.08;1.83;;;;;;;;;;5052065;28;20017;-36
2021/12/15 16:15:08;;;;;;;3.42;1.85;;;;;;;;;;5051873;28;20055;-36
2021/12/15 16:18:11;;;;;;;3.45;2.22;;;;;;;;;;5051975;28;20025;-36
2021/12/15 16:20:59;;;;;;;3.10;1.65;;;;;;;;;;5050651;28;20071;-36